Time;durP1;ratioP1;P1;durP2;ratioP2;P2;SDS_P1;SDS_P2;PMS_P1;PMS_P2;Temp;Humidity;BMP_temperature;BMP_pressure;BME280_temperature;BME280_humidity;BME280_pressure;Samples;Min_cycle;Max_cycle;Signal;HPM_P1;HPM_P2
2023/10/07 00:00:59;;;;;;;0.03;0.03;;;;;;;17.95;71.43;102160.31;5082452;28;20097;-80
2023/10/07 00:03:25;;;;;;;0.77;0.77;;;;;;;17.88;72.14;102174.84;5096379;28;20024;-81
2023/10/07 00:06:00;;;;;;;0.40;0.40;;;;;;;17.81;72.83;102183.06;5097967;28;20024;-81
2023/10/07 00:08:27;;;;;;;0.00;0.00;;;;;;;17.89;72.74;102171.19;5101819;28;20050;-81
2023/10/07 00:10:55;;;;;;;2.25;1.13;;;;;;;17.91;73.30;102179.22;5097999;28;20020;-81
2023/10/07 00:13:22;;;;;;;0.30;0.30;;;;;;;18.00;72.48;102168.25;5102470;28;20397;-81
2023/10/07 00:15:51;;;;;;;0.20;0.20;;;;;;;18.05;72.93;102177.03;5106541;28;20020;-80
2023/10/07 00:18:19;;;;;;;0.10;0.10;;;;;;;18.07;73.05;102169.81;5104040;28;20070;-81
2023/10/07 00:20:51;;;;;;;0.10;0.10;;;;;;;18.21;72.55;102161.34;5097081;28;20572;-81
2023/10/07 00:23:20;;;;;;;0.68;0.68;;;;;;;18.24;72.45;102174.69;5091403;28;20020;-81
2023/10/07 00:25:55;;;;;;;0.20;0.20;;;;;;;18.25;72.77;102168.34;5084146;28;20029;-81
2023/10/07 00:28:28;;;;;;;0.57;0.57;;;;;;;18.37;72.42;102156.38;5086037;28;20032;-81
2023/10/07 00:30:56;;;;;;;0.13;0.13;;;;;;;18.37;72.73;102159.06;5096116;28;20072;-81
2023/10/07 00:33:23;;;;;;;0.57;0.57;;;;;;;18.46;72.46;102151.66;5091080;28;20037;-81
2023/10/07 00:35:53;;;;;;;0.38;0.38;;;;;;;18.53;72.06;102151.41;5078834;28;20036;-82
2023/10/07 00:38:23;;;;;;;0.40;0.40;;;;;;;18.52;72.15;102143.41;5074261;28;20033;-81
2023/10/07 00:40:54;;;;;;;4.28;0.75;;;;;;;18.52;72.40;102143.41;5085589;28;20039;-81
2023/10/07 00:43:26;;;;;;;0.45;0.45;;;;;;;18.65;71.63;102144.72;5082859;28;20448;-80
2023/10/07 00:45:59;;;;;;;0.95;0.95;;;;;;;18.63;71.81;102146.59;5082779;28;20033;-80
2023/10/07 00:48:38;;;;;;;0.10;0.10;;;;;;;18.72;71.39;102145.44;5076486;28;20020;-81
2023/10/07 00:51:11;;;;;;;0.90;0.90;;;;;;;18.66;71.71;102148.31;5085718;28;20020;-81
2023/10/07 00:53:46;;;;;;;0.10;0.10;;;;;;;18.70;71.56;102164.25;5085194;28;21281;-81
2023/10/07 00:56:15;;;;;;;0.10;0.10;;;;;;;18.70;71.73;102172.28;5096205;28;20381;-81
2023/10/07 00:58:46;;;;;;;0.10;0.10;;;;;;;18.81;71.08;102173.78;5094033;28;20086;-81
2023/10/07 01:01:13;;;;;;;2.75;0.68;;;;;;;18.76;71.22;102169.41;5096424;28;20081;-81
2023/10/07 01:03:55;;;;;;;0.25;0.25;;;;;;;18.85;71.10;102173.59;5094404;28;20107;-81
2023/10/07 01:06:25;;;;;;;0.10;0.10;;;;;;;18.91;70.63;102156.44;5084676;28;20429;-81
2023/10/07 01:08:58;;;;;;;2.20;0.57;;;;;;;18.83;70.85;102163.84;5084349;28;20049;-81
2023/10/07 01:11:29;;;;;;;0.17;0.17;;;;;;;18.93;70.53;102173.41;5078316;28;20029;-81
2023/10/07 01:13:56;;;;;;;0.20;0.20;;;;;;;19.00;70.38;102168.69;5075487;28;20048;-84
2023/10/07 01:16:28;;;;;;;0.10;0.10;;;;;;;19.04;70.25;102173.91;5078434;28;20054;-80
2023/10/07 01:19:04;;;;;;;0.28;0.28;;;;;;;19.03;70.31;102177.50;5082846;28;20074;-81
2023/10/07 01:21:33;;;;;;;0.35;0.30;;;;;;;19.03;69.87;102166.75;5081393;28;20024;-81
2023/10/07 01:24:05;;;;;;;0.20;0.20;;;;;;;19.18;69.92;102162.66;5076189;28;20707;-81
2023/10/07 01:26:39;;;;;;;6.05;0.73;;;;;;;19.18;69.77;102153.75;5084248;28;20039;-80
2023/10/07 01:29:13;;;;;;;0.82;0.82;;;;;;;19.15;69.51;102161.91;5082497;28;20025;-81
2023/10/07 01:31:59;;;;;;;0.10;0.10;;;;;;;19.11;69.87;102162.94;5087674;28;20047;-81
2023/10/07 01:34:30;;;;;;;0.40;0.40;;;;;;;19.13;69.59;102170.00;5075508;28;20020;-82
2023/10/07 01:37:00;;;;;;;0.10;0.10;;;;;;;19.13;69.51;102161.06;5077832;28;20032;-82
2023/10/07 01:39:29;;;;;;;0.15;0.15;;;;;;;19.19;69.33;102156.38;5082569;28;20078;-81
2023/10/07 01:42:01;;;;;;;0.25;0.25;;;;;;;19.32;69.20;102155.94;5076482;28;20477;-82
2023/10/07 01:44:30;;;;;;;0.10;0.10;;;;;;;19.31;68.80;102151.47;5087102;28;20555;-82
2023/10/07 01:46:59;;;;;;;2.40;0.52;;;;;;;19.41;68.50;102152.91;5079756;28;20032;-81
2023/10/07 01:49:30;;;;;;;3.42;0.65;;;;;;;19.46;68.59;102152.75;5078104;28;20025;-81
2023/10/07 01:51:56;;;;;;;0.90;0.82;;;;;;;19.52;68.33;102149.81;5080259;28;20040;-81
2023/10/07 01:54:27;;;;;;;0.10;0.10;;;;;;;19.49;68.28;102149.91;5078880;28;20020;-80
2023/10/07 01:56:54;;;;;;;0.10;0.10;;;;;;;19.47;68.38;102149.13;5077180;28;20036;-81
2023/10/07 01:59:21;;;;;;;0.20;0.20;;;;;;;19.36;68.46;102126.19;5081178;28;20021;-80
2023/10/07 02:01:53;;;;;;;0.10;0.10;;;;;;;19.35;68.80;102145.94;5093861;28;20037;-80
2023/10/07 02:04:26;;;;;;;0.10;0.10;;;;;;;19.39;68.92;102142.22;5082025;28;20024;-81
2023/10/07 02:06:54;;;;;;;0.10;0.10;;;;;;;19.43;68.71;102142.97;5077733;28;20024;-81
2023/10/07 02:09:40;;;;;;;0.45;0.45;;;;;;;19.51;68.47;102145.38;5088553;28;20028;-80
2023/10/07 02:12:10;;;;;;;0.38;0.38;;;;;;;19.52;68.48;102147.13;5073659;28;20040;-81
2023/10/07 02:14:37;;;;;;;0.10;0.10;;;;;;;19.53;68.33;102139.00;5079930;28;20035;-81
2023/10/07 02:17:03;;;;;;;0.10;0.10;;;;;;;19.51;68.72;102140.88;5079539;28;20408;-79
2023/10/07 02:19:32;;;;;;;0.10;0.10;;;;;;;19.51;68.56;102134.63;5074559;28;20090;-80
2023/10/07 02:21:59;;;;;;;0.10;0.10;;;;;;;19.56;68.50;102138.00;5080482;28;20030;-81
2023/10/07 02:24:29;;;;;;;0.63;0.63;;;;;;;19.58;68.39;102137.94;5084417;28;20040;-80
2023/10/07 02:26:59;;;;;;;0.10;0.10;;;;;;;19.54;68.46;102140.78;5075288;28;20082;-81
2023/10/07 02:29:34;;;;;;;0.45;0.45;;;;;;;19.55;68.32;102130.88;5079049;28;20056;-81
2023/10/07 02:32:17;;;;;;;7.28;0.85;;;;;;;19.45;68.87;102134.84;5083622;28;20033;-81
2023/10/07 02:34:51;;;;;;;1.80;1.65;;;;;;;19.53;68.58;102128.25;5087663;28;20029;-81
2023/10/07 02:37:21;;;;;;;0.20;0.20;;;;;;;19.60;68.48;102131.63;5068575;28;20040;-79
2023/10/07 02:39:48;;;;;;;0.10;0.10;;;;;;;19.53;68.77;102143.53;5067854;28;20041;-81
2023/10/07 02:42:21;;;;;;;0.25;0.25;;;;;;;19.61;68.52;102141.41;5073831;28;20028;-80
2023/10/07 02:44:51;;;;;;;0.10;0.10;;;;;;;19.59;68.56;102143.28;5078627;28;20032;-80
2023/10/07 02:47:19;;;;;;;0.10;0.10;;;;;;;19.47;68.83;102141.91;5063787;28;20123;-82
2023/10/07 02:49:49;;;;;;;0.50;0.50;;;;;;;19.61;68.45;102138.72;5071276;28;20070;-82
2023/10/07 02:52:17;;;;;;;0.10;0.10;;;;;;;19.64;68.21;102122.47;5072674;28;20048;-81
2023/10/07 02:54:44;;;;;;;0.10;0.10;;;;;;;19.62;68.45;102136.91;5079454;28;20032;-81
2023/10/07 02:57:24;;;;;;;0.15;0.15;;;;;;;19.44;68.95;102123.22;5081121;28;20028;-81
2023/10/07 02:59:51;;;;;;;0.10;0.10;;;;;;;19.49;69.17;102114.97;5067853;28;20096;-81
2023/10/07 03:05:03;;;;;;;7.57;1.48;;;;;;;19.56;68.90;102129.94;5086209;28;20477;-81
2023/10/07 03:07:29;;;;;;;0.10;0.10;;;;;;;19.57;68.76;102129.03;5095535;28;20039;-79
2023/10/07 03:12:47;;;;;;;0.45;0.45;;;;;;;19.45;69.37;102129.47;5075523;28;20039;-81
2023/10/07 03:16:09;;;;;;;0.75;0.75;;;;;;;19.51;69.00;102124.72;5075696;28;20025;-81
2023/10/07 03:18:03;;;;;;;3.10;1.90;;;;;;;19.63;68.58;102118.03;5074270;28;20044;-81
2023/10/07 03:20:31;;;;;;;0.03;0.03;;;;;;;19.62;68.46;102116.28;5082553;28;20028;-81
2023/10/07 03:23:17;;;;;;;0.03;0.03;;;;;;;19.65;68.50;102118.88;5079570;28;20055;-81
2023/10/07 03:28:38;;;;;;;0.10;0.10;;;;;;;19.54;68.80;102123.78;5070166;28;20381;-80
2023/10/07 03:31:08;;;;;;;0.10;0.10;;;;;;;19.57;68.99;102134.41;5052163;28;20033;-80
2023/10/07 03:39:55;;;;;;;0.93;0.93;;;;;;;19.57;68.85;102126.34;5097603;27;1166542;-81
2023/10/07 03:41:48;;;;;;;1.00;0.77;;;;;;;19.54;69.12;102123.78;5123874;28;20498;-81
2023/10/07 03:44:16;;;;;;;0.03;0.03;;;;;;;19.59;69.08;102116.41;5125984;28;20123;-80
2023/10/07 03:46:44;;;;;;;0.13;0.13;;;;;;;19.46;69.56;102120.47;5115377;27;20031;-81
2023/10/07 03:49:11;;;;;;;0.13;0.13;;;;;;;19.59;68.85;102119.09;5113885;28;20118;-81
2023/10/07 03:51:37;;;;;;;0.10;0.10;;;;;;;19.56;69.08;102122.78;5115752;28;20042;-81
2023/10/07 03:54:12;;;;;;;0.10;0.10;;;;;;;19.50;69.51;102128.38;5122973;28;20027;-80
2023/10/07 03:56:38;;;;;;;0.43;0.43;;;;;;;19.38;69.90;102127.00;5117624;28;20031;-81
2023/10/07 03:59:05;;;;;;;0.10;0.10;;;;;;;19.50;69.67;102122.13;5119722;28;20024;-81
2023/10/07 04:01:32;;;;;;;0.10;0.10;;;;;;;19.53;69.72;102116.63;5119101;28;20032;-81
2023/10/07 04:03:59;;;;;;;0.30;0.30;;;;;;;19.55;69.52;102120.13;5112549;28;20035;-81
2023/10/07 04:06:34;;;;;;;0.10;0.10;;;;;;;19.51;69.71;102116.66;5112568;28;20394;-81
2023/10/07 04:09:09;;;;;;;0.55;0.55;;;;;;;19.53;69.70;102113.94;5112075;28;20028;-81
2023/10/07 04:11:37;;;;;;;5.28;1.10;;;;;;;19.53;69.68;102125.56;5111685;28;20028;-81
2023/10/07 04:14:19;;;;;;;0.77;0.77;;;;;;;19.61;69.39;102110.97;5113349;28;20036;-81
2023/10/07 04:16:47;;;;;;;0.10;0.10;;;;;;;19.58;69.42;102117.34;5111422;28;20035;-80
2023/10/07 04:21:55;;;;;;;0.13;0.13;;;;;;;19.53;69.71;102112.13;5076105;28;20392;-81
2023/10/07 04:24:28;;;;;;;0.70;0.70;;;;;;;19.47;69.85;102109.66;5070731;28;20503;-80
2023/10/07 04:26:55;;;;;;;0.00;0.00;;;;;;;19.64;69.28;102102.78;5082021;28;20039;-81
2023/10/07 04:29:22;;;;;;;0.25;0.25;;;;;;;19.61;69.19;102103.75;5058335;28;20477;-81
2023/10/07 04:31:52;;;;;;;0.10;0.10;;;;;;;19.68;69.08;102105.28;5057447;28;20033;-81
2023/10/07 04:34:20;;;;;;;10.52;1.08;;;;;;;19.60;69.29;102106.53;5061939;28;20064;-81
2023/10/07 04:39:39;;;;;;;0.22;0.22;;;;;;;19.62;68.83;102093.91;5100229;27;20885;-81
2023/10/07 04:42:07;;;;;;;0.90;0.90;;;;;;;19.61;69.25;102103.75;5073146;28;20028;-80
2023/10/07 04:50:07;;;;;;;0.10;0.10;;;;;;;19.68;68.81;102094.53;5087696;27;20432;-81
2023/10/07 04:52:40;;;;;;;0.03;0.03;;;;;;;19.70;68.79;102098.06;5090552;28;20103;-81
2023/10/07 04:55:11;;;;;;;;;;;;;;;19.77;68.48;102093.31;5090286;28;20028;-81
2023/10/07 04:57:56;;;;;;;0.10;0.10;;;;;;;19.61;68.91;102098.38;5090002;28;19952;-81
2023/10/07 05:03:14;;;;;;;0.65;0.65;;;;;;;19.54;68.86;102094.22;5065365;28;20391;-79
2023/10/07 05:05:43;;;;;;;0.10;0.10;;;;;;;19.54;68.69;102091.53;5041137;28;20442;-79
2023/10/07 05:08:27;;;;;;;0.10;0.10;;;;;;;19.37;69.50;102084.06;5038762;28;20029;-79
2023/10/07 05:10:55;;;;;;;0.08;0.08;;;;;;;19.36;69.73;102093.06;5042681;28;20631;-80
2023/10/07 05:13:21;;;;;;;0.22;0.22;;;;;;;19.30;69.58;102101.34;5039883;28;20037;-80
2023/10/07 05:15:47;;;;;;;0.15;0.15;;;;;;;19.28;69.71;102100.53;5042686;28;20033;-79
2023/10/07 05:18:16;;;;;;;0.10;0.10;;;;;;;19.22;70.16;102098.97;5049709;28;20022;-79
2023/10/07 05:20:46;;;;;;;0.10;0.10;;;;;;;19.11;70.67;102106.53;5040785;28;20080;-80
2023/10/07 05:23:14;;;;;;;0.10;0.10;;;;;;;19.16;70.43;102107.25;5040814;28;20135;-80
2023/10/07 05:25:48;;;;;;;0.05;0.05;;;;;;;19.11;70.81;102118.13;5051397;28;20022;-79
2023/10/07 05:28:17;;;;;;;0.10;0.10;;;;;;;19.12;70.76;102119.91;5036036;28;20029;-79
2023/10/07 05:30:50;;;;;;;0.00;0.00;;;;;;;19.10;70.98;102128.94;5045836;28;20063;-80
2023/10/07 05:33:34;;;;;;;0.10;0.10;;;;;;;19.20;70.57;102130.38;5038124;28;20735;-80
2023/10/07 05:36:08;;;;;;;0.30;0.30;;;;;;;19.10;70.98;102131.63;5043255;28;20514;-80
2023/10/07 05:38:35;;;;;;;0.20;0.20;;;;;;;19.18;70.46;102133.13;5041732;28;20402;-80
2023/10/07 05:41:02;;;;;;;0.22;0.22;;;;;;;19.14;71.03;102141.31;5050850;28;20097;-80
2023/10/07 05:43:29;;;;;;;1.10;1.05;;;;;;;19.20;70.53;102138.44;5044342;28;20037;-80
2023/10/07 05:45:55;;;;;;;0.00;0.00;;;;;;;19.20;70.39;102119.63;5046653;28;20029;-79
2023/10/07 05:48:22;;;;;;;0.10;0.10;;;;;;;19.15;70.66;102118.91;5045205;28;20034;-79
2023/10/07 05:50:48;;;;;;;0.70;0.70;;;;;;;19.14;71.01;102126.09;5036104;28;20045;-79
2023/10/07 05:53:15;;;;;;;0.10;0.10;;;;;;;19.16;70.91;102136.78;5041325;28;20052;-79
2023/10/07 05:55:42;;;;;;;0.00;0.00;;;;;;;19.08;71.39;102137.06;5049790;28;20032;-79
2023/10/07 05:58:08;;;;;;;0.10;0.10;;;;;;;19.12;71.33;102132.47;5049636;28;20517;-79
2023/10/07 06:00:36;;;;;;;0.10;0.10;;;;;;;19.16;71.11;102128.72;5039539;28;20049;-79
2023/10/07 06:03:06;;;;;;;1.35;1.13;;;;;;;19.16;71.24;102123.34;5044012;28;20025;-79
2023/10/07 06:05:33;;;;;;;0.45;0.45;;;;;;;19.08;71.79;102121.81;5037264;28;20030;-79
2023/10/07 06:07:59;;;;;;;3.63;1.55;;;;;;;19.04;72.13;102120.19;5034902;28;20089;-78
2023/10/07 06:10:26;;;;;;;0.15;0.15;;;;;;;19.07;71.96;102117.38;5049960;28;20032;-80
2023/10/07 06:12:54;;;;;;;1.85;1.75;;;;;;;19.14;71.68;102120.72;5037695;28;20026;-79
2023/10/07 06:15:21;;;;;;;0.10;0.10;;;;;;;19.11;72.22;102119.97;5038461;28;20136;-79
2023/10/07 06:17:47;;;;;;;6.93;0.68;;;;;;;19.10;72.30;102129.81;5033899;28;20030;-80
2023/10/07 06:20:14;;;;;;;0.10;0.10;;;;;;;19.16;71.93;102120.66;5026086;28;20038;-79
2023/10/07 06:22:45;;;;;;;0.10;0.10;;;;;;;19.17;72.04;102130.50;5030575;28;20112;-80
2023/10/07 06:25:13;;;;;;;0.60;0.60;;;;;;;19.27;71.79;102129.22;5036519;28;20037;-80
2023/10/07 06:27:42;;;;;;;0.73;0.73;;;;;;;19.16;72.29;102128.72;5029885;28;20033;-79
2023/10/07 06:30:09;;;;;;;0.10;0.10;;;;;;;19.20;72.08;102119.63;5031924;28;20380;-78
2023/10/07 06:33:12;;;;;;;0.20;0.20;;;;;;;19.21;72.34;102126.75;5022776;28;20033;-79
2023/10/07 06:35:23;;;;;;;0.10;0.10;;;;;;;19.10;72.72;102113.69;5023675;28;20037;-80
2023/10/07 06:37:54;;;;;;;0.08;0.08;;;;;;;19.07;72.71;102112.00;5025982;28;20025;-79
2023/10/07 06:40:35;;;;;;;0.03;0.03;;;;;;;19.21;72.31;102107.94;5041914;28;20032;-79
2023/10/07 06:43:02;;;;;;;0.10;0.10;;;;;;;19.14;72.39;102111.78;5027799;28;20045;-78
2023/10/07 06:45:35;;;;;;;0.10;0.10;;;;;;;19.05;73.05;102115.66;5027931;28;20025;-78
2023/10/07 06:48:02;;;;;;;1.45;1.27;;;;;;;19.00;73.42;102115.81;5031793;28;20056;-80
2023/10/07 06:50:29;;;;;;;0.10;0.10;;;;;;;19.11;72.70;102122.66;5030164;28;20091;-80
2023/10/07 06:52:55;;;;;;;0.17;0.17;;;;;;;19.14;72.59;102120.72;5032245;28;20025;-79
2023/10/07 06:55:22;;;;;;;0.05;0.05;;;;;;;19.20;72.36;102130.38;5028510;28;20029;-83
2023/10/07 06:57:48;;;;;;;0.30;0.30;;;;;;;19.20;72.51;102133.06;5025209;28;20403;-80
2023/10/07 07:00:22;;;;;;;0.00;0.00;;;;;;;19.14;72.75;102144.91;5032293;28;20053;-81
2023/10/07 07:02:54;;;;;;;4.50;1.40;;;;;;;19.16;72.93;102142.16;5034421;28;20021;-82
2023/10/07 07:05:23;;;;;;;0.10;0.10;;;;;;;19.25;72.51;102139.13;5027785;28;20402;-80
2023/10/07 07:07:52;;;;;;;6.13;2.17;;;;;;;19.20;72.85;102142.00;5025479;28;20025;-81
2023/10/07 07:10:27;;;;;;;1.00;1.00;;;;;;;19.30;72.23;102139.88;5034328;28;20025;-81
2023/10/07 07:15:42;;;;;;;0.10;0.10;;;;;;;19.28;72.58;102157.84;5029423;28;20068;-80
2023/10/07 07:20:49;;;;;;;0.57;0.53;;;;;;;19.40;72.40;102170.84;5096520;27;1174926;-80
2023/10/07 07:23:20;;;;;;;0.00;0.00;;;;;;;19.46;72.19;102163.50;5130969;27;20028;-80
2023/10/07 07:26:03;;;;;;;3.75;2.05;;;;;;;19.46;72.08;102167.03;5125058;28;20039;-81
2023/10/07 07:28:30;;;;;;;0.20;0.20;;;;;;;19.51;71.58;102164.19;5131246;28;20399;-82
2023/10/07 07:30:58;;;;;;;0.15;0.15;;;;;;;19.53;71.75;102171.25;5121109;28;20023;-81
2023/10/07 07:33:29;;;;;;;0.80;0.80;;;;;;;19.64;71.31;102176.25;5126712;28;20024;-82
2023/10/07 07:35:56;;;;;;;0.22;0.22;;;;;;;19.64;71.40;102181.63;5121341;28;20027;-81
2023/10/07 07:38:30;;;;;;;0.08;0.08;;;;;;;19.77;70.98;102182.03;5133966;27;20035;-82
2023/10/07 07:41:05;;;;;;;0.10;0.10;;;;;;;19.76;70.82;102188.34;5126854;28;20046;-81
2023/10/07 07:43:34;;;;;;;0.30;0.30;;;;;;;19.76;70.63;102184.81;5125865;28;20019;-81
2023/10/07 07:48:45;;;;;;;0.00;0.00;;;;;;;19.66;70.76;102187.81;5090280;27;20408;-79
2023/10/07 07:51:16;;;;;;;0.00;0.00;;;;;;;19.68;70.67;102177.03;5093340;28;20032;-82
2023/10/07 07:53:43;;;;;;;0.10;0.10;;;;;;;19.79;70.28;102181.97;5099597;28;20036;-81
2023/10/07 07:56:12;;;;;;;1.35;0.57;;;;;;;19.88;70.30;102173.63;5086353;28;20390;-81
2023/10/07 07:58:39;;;;;;;1.55;1.45;;;;;;;19.76;70.26;102171.34;5081612;28;20498;-80
2023/10/07 08:01:06;;;;;;;0.30;0.30;;;;;;;19.80;69.98;102178.38;5087181;28;20401;-81
2023/10/07 08:03:35;;;;;;;0.45;0.30;;;;;;;19.81;70.41;102180.13;5083693;28;20020;-82
2023/10/07 08:06:04;;;;;;;0.10;0.10;;;;;;;19.93;69.82;102166.25;5070237;28;20036;-81
2023/10/07 08:08:30;;;;;;;1.10;1.10;;;;;;;19.98;69.72;102160.69;5080073;28;20025;-79
2023/10/07 08:10:57;;;;;;;0.73;0.30;;;;;;;19.95;69.63;102167.06;5086606;28;20036;-79
2023/10/07 08:13:27;;;;;;;8.88;1.75;;;;;;;20.08;69.40;102166.59;5087041;28;20385;-80
2023/10/07 08:15:54;;;;;;;0.70;0.57;;;;;;;20.11;69.33;102177.22;5081054;28;20378;-80
2023/10/07 08:18:28;;;;;;;0.38;0.38;;;;;;;20.08;69.05;102163.91;5087714;28;20012;-81
2023/10/07 08:20:56;;;;;;;0.10;0.10;;;;;;;20.25;68.88;102164.13;5077566;28;20028;-80
2023/10/07 08:23:28;;;;;;;0.00;0.00;;;;;;;20.17;68.62;102166.22;5097492;28;20031;-81
2023/10/07 08:26:08;;;;;;;0.20;0.20;;;;;;;20.23;68.52;102165.97;5083358;28;20524;-81
2023/10/07 08:28:42;;;;;;;0.20;0.20;;;;;;;20.35;68.11;102164.63;5081945;28;20444;-82
2023/10/07 08:31:37;;;;;;;0.20;0.20;;;;;;;20.38;67.74;102158.25;5088069;28;20545;-83
2023/10/07 08:34:09;;;;;;;8.25;1.85;;;;;;;20.51;67.25;102163.06;5089248;28;20039;-86
2023/10/07 08:36:37;;;;;;;1.30;0.63;;;;;;;20.56;67.17;102165.56;5091397;28;20040;-81
2023/10/07 08:39:06;;;;;;;1.48;0.80;;;;;;;20.55;66.59;102171.00;5076986;28;20398;-80
2023/10/07 08:41:32;;;;;;;0.10;0.10;;;;;;;20.74;66.64;102165.78;5084799;28;20020;-79
2023/10/07 08:44:13;;;;;;;0.55;0.55;;;;;;;20.73;66.34;102177.47;5090974;28;20081;-79
2023/10/07 08:46:50;;;;;;;1.33;1.23;;;;;;;20.74;65.81;102155.88;5086341;28;20036;-77
2023/10/07 08:49:27;;;;;;;0.10;0.10;;;;;;;21.01;66.00;102177.19;5088734;28;20500;-79
2023/10/07 08:51:56;;;;;;;0.00;0.00;;;;;;;21.03;65.27;102171.75;5084021;28;20032;-81
2023/10/07 08:54:26;;;;;;;1.85;1.75;;;;;;;20.90;64.18;102157.91;5076407;28;20034;-78
2023/10/07 08:56:57;;;;;;;0.80;0.80;;;;;;;21.16;64.64;102176.53;5075990;28;20035;-79
2023/10/07 08:59:25;;;;;;;0.10;0.10;;;;;;;21.17;63.24;102180.09;5073756;28;20488;-78
2023/10/07 09:01:57;;;;;;;0.10;0.10;;;;;;;21.23;62.60;102169.03;5065704;28;20059;-79
2023/10/07 09:04:24;;;;;;;0.38;0.38;;;;;;;21.14;61.78;102175.72;5064869;28;20028;-80
2023/10/07 09:06:50;;;;;;;0.10;0.10;;;;;;;21.27;61.50;102159.88;5066177;28;20017;-78
2023/10/07 09:09:32;;;;;;;0.00;0.00;;;;;;;21.24;61.37;102170.78;5078560;28;20032;-86
2023/10/07 09:12:07;;;;;;;;;;;;;;;21.44;61.08;102166.34;5081288;28;20036;-82
2023/10/07 09:14:34;;;;;;;0.05;0.05;;;;;;;21.42;60.94;102174.50;5077786;28;19916;-81
2023/10/07 09:17:04;;;;;;;0.00;0.00;;;;;;;21.34;60.86;102158.66;5075261;28;20501;-82
2023/10/07 09:19:30;;;;;;;1.00;1.00;;;;;;;21.56;60.63;102159.53;5068410;28;20032;-86
2023/10/07 09:21:57;;;;;;;0.00;0.00;;;;;;;21.56;60.24;102160.44;5070375;28;20032;-80
2023/10/07 09:24:24;;;;;;;0.22;0.22;;;;;;;21.58;60.25;102166.63;5075881;28;20024;-80
2023/10/07 09:26:56;;;;;;;0.40;0.40;;;;;;;21.25;60.00;102161.78;5071474;28;20025;-80
2023/10/07 09:29:24;;;;;;;;;;;;;;;21.38;59.57;102161.22;5065544;28;20085;-79
2023/10/07 09:32:04;;;;;;;0.35;0.35;;;;;;;21.41;59.49;102161.97;5074144;28;20572;-79
2023/10/07 09:34:41;;;;;;;0.50;0.50;;;;;;;21.40;59.21;102171.00;5064448;28;20025;-79
2023/10/07 09:37:13;;;;;;;1.05;0.70;;;;;;;21.37;58.38;102181.03;5069706;28;20509;-80
2023/10/07 09:39:45;;;;;;;0.63;0.63;;;;;;;21.61;58.57;102188.06;5072509;28;20079;-80
2023/10/07 09:42:56;;;;;;;1.85;0.65;;;;;;;21.80;58.57;102189.91;5067821;28;20036;-80
2023/10/07 09:45:08;;;;;;;0.10;0.10;;;;;;;21.87;58.08;102201.28;5062983;28;20044;-79
2023/10/07 09:47:38;;;;;;;0.43;0.43;;;;;;;21.76;57.70;102194.56;5064871;28;20422;-80
2023/10/07 09:50:19;;;;;;;0.00;0.00;;;;;;;21.78;58.25;102202.59;5072070;28;20040;-80
2023/10/07 09:52:51;;;;;;;0.82;0.55;;;;;;;21.77;57.60;102200.84;5075074;28;20058;-81
2023/10/07 09:55:47;;;;;;;1.25;1.25;;;;;;;21.92;57.73;102213.63;5071285;28;20031;-81
2023/10/07 09:58:36;;;;;;;0.17;0.17;;;;;;;21.73;57.85;102204.63;5066260;28;20044;-80
2023/10/07 10:01:37;;;;;;;0.20;0.20;;;;;;;21.92;57.67;102204.66;5061917;28;20028;-81
2023/10/07 10:09:42;;;;;;;0.30;0.30;;;;;;;21.97;57.67;102190.00;5129145;27;20393;-80
2023/10/07 10:12:49;;;;;;;0.75;0.75;;;;;;;22.15;57.77;102190.09;5084025;28;20028;-80
2023/10/07 10:15:50;;;;;;;0.55;0.55;;;;;;;22.16;56.96;102186.44;5090950;28;20176;-80
2023/10/07 10:17:48;;;;;;;0.75;0.75;;;;;;;22.37;56.79;102172.84;5095952;28;20036;-80
2023/10/07 10:20:18;;;;;;;0.10;0.10;;;;;;;22.41;55.94;102174.50;5089799;28;20020;-81
2023/10/07 10:22:52;;;;;;;0.08;0.08;;;;;;;22.56;56.63;102189.06;5090085;28;20405;-80
2023/10/07 10:25:26;;;;;;;0.15;0.15;;;;;;;22.54;55.78;102188.25;5090819;28;20027;-80
2023/10/07 10:28:01;;;;;;;0.00;0.00;;;;;;;22.58;55.22;102185.34;5089522;28;20065;-80
2023/10/07 10:30:28;;;;;;;0.93;0.93;;;;;;;22.43;54.77;102183.38;5087615;28;20028;-80
2023/10/07 10:32:58;;;;;;;0.20;0.20;;;;;;;22.45;54.33;102176.09;5090047;28;20087;-80
2023/10/07 10:35:25;;;;;;;2.17;2.00;;;;;;;22.56;54.69;102173.72;5089759;28;20040;-80
2023/10/07 10:37:58;;;;;;;0.10;0.10;;;;;;;22.47;54.58;102190.41;5089657;28;20032;-80
2023/10/07 10:40:31;;;;;;;0.32;0.32;;;;;;;22.57;53.94;102191.69;5089349;28;20115;-81
2023/10/07 10:42:57;;;;;;;6.78;1.92;;;;;;;22.65;53.95;102185.03;5097436;28;20021;-79
2023/10/07 10:45:25;;;;;;;0.80;0.80;;;;;;;22.62;54.94;102186.94;5091232;28;20030;-80
2023/10/07 10:47:53;;;;;;;0.00;0.00;;;;;;;22.70;54.34;102183.84;5088908;28;20021;-81
2023/10/07 10:50:23;;;;;;;0.10;0.10;;;;;;;22.83;54.41;102196.72;5089844;28;20082;-80
2023/10/07 10:52:49;;;;;;;0.40;0.40;;;;;;;22.92;54.19;102202.53;5087933;28;20039;-81
2023/10/07 10:55:16;;;;;;;0.10;0.10;;;;;;;23.00;53.86;102198.59;5090198;28;20056;-81
2023/10/07 10:57:43;;;;;;;0.20;0.20;;;;;;;22.89;54.37;102212.63;5089246;28;20016;-82
2023/10/07 11:00:25;;;;;;;0.47;0.40;;;;;;;22.82;54.10;102203.97;5089640;28;20029;-79
2023/10/07 11:02:53;;;;;;;4.10;0.43;;;;;;;22.67;54.57;102202.03;5091302;28;20024;-78
2023/10/07 11:05:21;;;;;;;0.10;0.10;;;;;;;22.88;54.08;102210.88;5089878;28;20051;-80
2023/10/07 11:07:50;;;;;;;0.10;0.10;;;;;;;22.54;54.60;102213.47;5090263;28;20052;-80
2023/10/07 11:10:22;;;;;;;3.88;1.38;;;;;;;22.62;54.40;102221.19;5091009;28;20529;-79
2023/10/07 11:12:52;;;;;;;;;;;;;;;23.09;53.61;102217.03;5090688;28;20506;-79
2023/10/07 11:15:27;;;;;;;3.65;0.45;;;;;;;22.80;53.99;102224.78;5089266;28;19913;-80
2023/10/07 11:18:11;;;;;;;0.08;0.08;;;;;;;22.79;54.09;102212.22;5090420;28;20542;-79
2023/10/07 11:20:40;;;;;;;0.15;0.15;;;;;;;22.99;54.44;102223.84;5077785;28;20495;-79
2023/10/07 11:23:08;;;;;;;0.10;0.10;;;;;;;22.85;54.06;102217.31;5078198;28;20042;-80
2023/10/07 11:25:36;;;;;;;0.20;0.20;;;;;;;22.96;54.30;102199.69;5075849;28;20039;-80
2023/10/07 11:28:11;;;;;;;5.47;0.45;;;;;;;22.99;54.72;102208.53;5075044;28;20127;-78
2023/10/07 11:30:46;;;;;;;0.70;0.70;;;;;;;23.09;54.34;102215.22;5075540;28;20399;-80
2023/10/07 11:33:16;;;;;;;0.65;0.30;;;;;;;23.02;54.59;102212.91;5080448;28;20082;-80
2023/10/07 11:35:45;;;;;;;1.17;0.95;;;;;;;22.96;54.53;102218.63;5076535;28;20094;-80
2023/10/07 11:38:13;;;;;;;0.10;0.10;;;;;;;23.15;54.36;102210.44;5078394;28;20021;-80
2023/10/07 11:40:39;;;;;;;1.17;1.08;;;;;;;23.25;54.37;102220.75;5074844;28;20107;-80
2023/10/07 11:43:08;;;;;;;2.08;1.00;;;;;;;23.18;54.05;102218.41;5074191;28;20028;-79
2023/10/07 11:45:36;;;;;;;0.80;0.80;;;;;;;23.18;54.04;102210.28;5074102;28;20021;-79
2023/10/07 11:48:04;;;;;;;0.15;0.15;;;;;;;23.38;54.04;102220.09;5077287;28;20025;-79
2023/10/07 11:50:34;;;;;;;0.30;0.30;;;;;;;23.35;54.03;102220.25;5071353;28;20511;-80
2023/10/07 11:53:02;;;;;;;0.00;0.00;;;;;;;23.23;53.50;102236.16;5075010;28;20052;-80
2023/10/07 11:55:31;;;;;;;0.00;0.00;;;;;;;23.52;53.85;102228.34;5075069;28;20108;-80
2023/10/07 11:57:58;;;;;;;0.10;0.10;;;;;;;23.39;52.83;102243.47;5074398;28;20040;-79
2023/10/07 12:00:34;;;;;;;0.10;0.10;;;;;;;23.17;53.77;102236.47;5074327;28;20395;-78
2023/10/07 12:03:04;;;;;;;0.10;0.10;;;;;;;23.36;53.08;102239.09;5081592;28;20028;-78
2023/10/07 12:05:31;;;;;;;0.05;0.05;;;;;;;23.32;52.75;102242.91;5076142;28;20048;-79
2023/10/07 12:08:01;;;;;;;0.90;0.40;;;;;;;23.35;52.65;102241.88;5074510;28;20020;-80
2023/10/07 12:10:33;;;;;;;3.78;1.05;;;;;;;23.36;53.03;102238.22;5075042;28;20040;-79
2023/10/07 12:13:00;;;;;;;0.00;0.00;;;;;;;23.10;53.48;102244.00;5075590;28;20033;-80
2023/10/07 12:15:26;;;;;;;0.00;0.00;;;;;;;23.06;53.56;102233.41;5076804;28;20029;-80
2023/10/07 12:17:53;;;;;;;0.20;0.20;;;;;;;23.04;53.62;102224.50;5079811;28;20115;-80
2023/10/07 12:20:21;;;;;;;0.00;0.00;;;;;;;22.96;53.85;102226.72;5074956;28;20024;-79
2023/10/07 12:22:47;;;;;;;0.10;0.10;;;;;;;23.02;53.49;102212.91;5075352;28;20496;-80
2023/10/07 12:25:16;;;;;;;0.03;0.03;;;;;;;22.95;53.66;102215.03;5075134;28;20048;-79